Time,TemperatureF,DewpointF,PressureIn,WindDirection,WindDirectionDegrees,WindSpeedMPH,WindSpeedGustMPH,Humidity,HourlyPrecipIn,Conditions,Clouds,dailyrainin,SoftwareType,DateUTC
2013-01-01 00:07:00,36.4,20.0,28.22,SSW,194,3.0,10.0,51,0.00,,,0.00,weatherlink.com 1.10,2013-01-01 05:07:00,
2013-01-01 00:21:00,36.7,21.0,28.22,SW,228,1.0,4.0,53,0.00,,,0.00,weatherlink.com 1.10,2013-01-01 05:21:00,
2013-01-01 00:36:00,36.6,21.0,28.22,SSW,194,0.0,2.0,53,0.00,,,0.00,weatherlink.com 1.10,2013-01-01 05:36:00,
2013-01-01 00:51:00,36.0,21.0,28.22,South,187,0.0,2.0,55,0.00,,,0.00,weatherlink.com 1.10,2013-01-01 05:51:00,
2013-01-01 01:06:00,36.3,21.0,28.22,WSW,238,2.0,5.0,54,0.00,,,0.00,weatherlink.com 1.10,2013-01-01 06:06:00,
2013-01-01 01:21:00,36.9,22.0,28.21,SSW,210,3.0,9.0,55,0.00,,,0.00,weatherlink.com 1.10,2013-01-01 06:21:00,
2013-01-01 01:36:00,36.7,23.0,28.22,SSE,160,2.0,11.0,58,0.00,,,0.00,weatherlink.com 1.10,2013-01-01 06:36:00,
2013-01-01 01:51:00,36.5,23.0,28.22,South,184,1.0,8.0,59,0.00,,,0.00,weatherlink.com 1.10,2013-01-01 06:51:00,
2013-01-01 02:06:00,36.2,24.0,28.22,SSE,154,4.0,5.0,62,0.00,,,0.00,weatherlink.com 1.10,2013-01-01 07:06:00,
2013-01-01 02:21:00,36.1,25.0,28.22,SSE,158,2.0,8.0,64,0.00,,,0.00,weatherlink.com 1.10,2013-01-01 07:21:00,
2013-01-01 02:36:00,36.0,26.0,28.22,SW,217,3.0,7.0,66,0.00,,,0.00,weatherlink.com 1.10,2013-01-01 07:36:00,
2013-01-01 02:51:00,36.2,25.0,28.23,South,176,0.0,10.0,65,0.00,,,0.00,weatherlink.com 1.10,2013-01-01 07:51:00,
2013-01-01 03:06:00,35.7,26.0,28.21,SW,233,4.0,8.0,67,0.00,,,0.00,weatherlink.com 1.10,2013-01-01 08:06:00,
2013-01-01 03:21:00,36.3,26.0,28.22,SSW,200,1.0,8.0,67,0.00,,,0.00,weatherlink.com 1.10,2013-01-01 08:21:00,
2013-01-01 03:36:00,36.6,27.0,28.22,SW,217,2.0,12.0,68,0.00,,,0.00,weatherlink.com 1.10,2013-01-01 08:36:00,
2013-01-01 03:51:00,36.0,27.0,28.20,SSW,200,0.0,5.0,69,0.00,,,0.00,weatherlink.com 1.10,2013-01-01 08:51:00,
2013-01-01 04:06:00,35.5,27.0,28.21,SSE,150,0.0,2.0,70,0.00,,,0.00,weatherlink.com 1.10,2013-01-01 09:06:00,
2013-01-01 04:21:00,35.8,27.0,28.21,SW,214,1.0,8.0,70,0.00,,,0.00,weatherlink.com 1.10,2013-01-01 09:21:00,
2013-01-01 04:36:00,36.5,28.0,28.21,SSW,197,1.0,5.0,70,0.00,,,0.00,weatherlink.com 1.10,2013-01-01 09:36:00,
2013-01-01 04:51:00,36.6,28.0,28.20,South,191,0.0,5.0,70,0.00,,,0.00,weatherlink.com 1.10,2013-01-01 09:51:00,
2013-01-01 05:07:00,36.2,28.0,28.20,SW,225,1.0,1.0,71,0.00,,,0.00,weatherlink.com 1.10,2013-01-01 10:07:00,
2013-01-01 05:21:00,34.9,28.0,28.19,SW,225,0.0,0.0,75,0.00,,,0.00,weatherlink.com 1.10,2013-01-01 10:21:00,
2013-01-01 05:36:00,34.1,28.0,28.18,SW,225,0.0,1.0,79,0.00,,,0.00,weatherlink.com 1.10,2013-01-01 10:36:00,
2013-01-01 05:51:00,33.4,28.0,28.18,SW,225,0.0,1.0,81,0.00,,,0.00,weatherlink.com 1.10,2013-01-01 10:51:00,
2013-01-01 06:06:00,32.9,28.0,28.18,ENE,77,0.0,1.0,82,0.00,,,0.00,weatherlink.com 1.10,2013-01-01 11:06:00,
2013-01-01 06:22:00,32.5,28.0,28.17,East,86,0.0,0.0,83,0.00,,,0.00,weatherlink.com 1.10,2013-01-01 11:22:00,
2013-01-01 06:36:00,32.1,28.0,28.17,East,91,0.0,0.0,84,0.00,,,0.00,weatherlink.com 1.10,2013-01-01 11:36:00,
2013-01-01 06:52:00,31.5,28.0,28.17,East,84,1.0,1.0,86,0.00,,,0.00,weatherlink.com 1.10,2013-01-01 11:52:00,
2013-01-01 07:07:00,31.7,28.0,28.17,ENE,63,0.0,0.0,85,0.00,,,0.00,weatherlink.com 1.10,2013-01-01 12:07:00,
2013-01-01 07:22:00,31.5,28.0,28.17,ENE,70,0.0,1.0,86,0.00,,,0.00,weatherlink.com 1.10,2013-01-01 12:22:00,
2013-01-01 07:37:00,31.5,28.0,28.18,ENE,77,0.0,1.0,87,0.00,,,0.00,weatherlink.com 1.10,2013-01-01 12:37:00,
2013-01-01 07:52:00,32.0,29.0,28.18,NE,50,0.0,1.0,87,0.00,,,0.00,weatherlink.com 1.10,2013-01-01 12:52:00,
2013-01-01 08:07:00,33.5,30.0,28.18,SSW,207,2.0,2.0,87,0.00,,,0.00,weatherlink.com 1.10,2013-01-01 13:07:00,
2013-01-01 08:22:00,36.7,31.0,28.17,SSW,207,0.0,5.0,79,0.00,,,0.00,weatherlink.com 1.10,2013-01-01 13:22:00,
2013-01-01 08:37:00,37.9,31.0,28.18,SSW,210,1.0,7.0,76,0.00,,,0.00,weatherlink.com 1.10,2013-01-01 13:37:00,
2013-01-01 08:52:00,38.5,31.0,28.18,SW,228,0.0,4.0,74,0.00,,,0.00,weatherlink.com 1.10,2013-01-01 13:52:00,
2013-01-01 09:07:00,38.9,31.0,28.18,SW,226,3.0,12.0,72,0.00,,,0.00,weatherlink.com 1.10,2013-01-01 14:07:00,
2013-01-01 09:22:00,39.0,31.0,28.19,SSW,200,0.0,5.0,73,0.00,,,0.00,weatherlink.com 1.10,2013-01-01 14:22:00,
2013-01-01 09:37:00,39.2,31.0,28.18,SW,214,3.0,8.0,72,0.00,,,0.00,weatherlink.com 1.10,2013-01-01 14:37:00,
2013-01-01 09:52:00,39.2,31.0,28.17,SW,217,5.0,9.0,72,0.00,,,0.00,weatherlink.com 1.10,2013-01-01 14:52:00,
2013-01-01 10:07:00,39.4,31.0,28.18,West,280,2.0,6.0,72,0.00,,,0.00,weatherlink.com 1.10,2013-01-01 15:07:00,
2013-01-01 10:22:00,39.7,31.0,28.18,West,277,4.0,6.0,72,0.00,,,0.00,weatherlink.com 1.10,2013-01-01 15:22:00,
2013-01-01 10:37:00,40.1,31.0,28.18,NW,319,0.0,7.0,71,0.00,,,0.00,weatherlink.com 1.10,2013-01-01 15:37:00,
2013-01-01 10:52:00,40.7,32.0,28.18,NW,307,3.0,5.0,70,0.00,,,0.00,weatherlink.com 1.10,2013-01-01 15:52:00,
2013-01-01 11:07:00,40.8,32.0,28.18,SSE,148,0.0,8.0,70,0.00,,,0.00,weatherlink.com 1.10,2013-01-01 16:07:00,
2013-01-01 11:22:00,41.0,32.0,28.17,East,79,0.0,7.0,69,0.00,,,0.00,weatherlink.com 1.10,2013-01-01 16:22:00,
2013-01-01 11:37:00,41.3,32.0,28.16,SE,143,0.0,2.0,69,0.00,,,0.00,weatherlink.com 1.10,2013-01-01 16:37:00,
2013-01-01 11:52:00,41.3,32.0,28.16,West,273,0.0,3.0,70,0.00,,,0.00,weatherlink.com 1.10,2013-01-01 16:52:00,
2013-01-01 12:07:00,41.1,32.0,28.15,WNW,287,2.0,5.0,70,0.00,,,0.00,weatherlink.com 1.10,2013-01-01 17:07:00,
2013-01-01 12:22:00,40.7,32.0,28.15,WNW,285,3.0,6.0,71,0.00,,,0.00,weatherlink.com 1.10,2013-01-01 17:22:00,
2013-01-01 12:37:00,40.6,32.0,28.14,West,270,1.0,3.0,71,0.00,,,0.00,weatherlink.com 1.10,2013-01-01 17:37:00,
2013-01-01 12:52:00,40.9,32.0,28.13,WSW,250,3.0,13.0,70,0.00,,,0.00,weatherlink.com 1.10,2013-01-01 17:52:00,
2013-01-01 13:07:00,40.8,31.0,28.12,WSW,256,0.0,6.0,69,0.00,,,0.00,weatherlink.com 1.10,2013-01-01 18:07:00,
2013-01-01 13:22:00,41.2,31.0,28.12,WSW,245,0.0,3.0,68,0.00,,,0.00,weatherlink.com 1.10,2013-01-01 18:22:00,
2013-01-01 13:37:00,41.5,32.0,28.13,WSW,255,0.0,4.0,68,0.00,,,0.00,weatherlink.com 1.10,2013-01-01 18:37:00,
2013-01-01 13:52:00,41.9,32.0,28.12,WSW,240,3.0,4.0,67,0.00,,,0.00,weatherlink.com 1.10,2013-01-01 18:52:00,
2013-01-01 14:07:00,41.7,31.0,28.11,WSW,238,2.0,4.0,66,0.00,,,0.00,weatherlink.com 1.10,2013-01-01 19:07:00,
2013-01-01 14:22:00,41.7,31.0,28.12,West,260,3.0,7.0,67,0.00,,,0.00,weatherlink.com 1.10,2013-01-01 19:22:00,
2013-01-01 14:37:00,41.2,31.0,28.14,South,179,2.0,8.0,67,0.00,,,0.00,weatherlink.com 1.10,2013-01-01 19:37:00,
2013-01-01 15:07:00,40.0,31.0,28.13,South,180,3.0,3.0,69,0.00,,,0.00,weatherlink.com 1.10,2013-01-01 20:07:00,
2013-01-01 15:22:00,39.4,30.0,28.13,South,179,2.0,4.0,70,0.00,,,0.00,weatherlink.com 1.10,2013-01-01 20:22:00,
2013-01-01 15:37:00,38.7,31.0,28.14,South,184,1.0,2.0,73,0.00,,,0.00,weatherlink.com 1.10,2013-01-01 20:37:00,
2013-01-01 15:52:00,38.8,30.0,28.16,SSW,212,2.0,4.0,72,0.00,,,0.00,weatherlink.com 1.10,2013-01-01 20:52:00,
2013-01-01 16:07:00,38.4,30.0,28.15,South,184,3.0,4.0,73,0.00,,,0.00,weatherlink.com 1.10,2013-01-01 21:07:00,
2013-01-01 16:22:00,38.3,30.0,28.15,SW,221,0.0,4.0,73,0.00,,,0.00,weatherlink.com 1.10,2013-01-01 21:22:00,
2013-01-01 16:37:00,38.0,30.0,28.16,South,183,1.0,3.0,73,0.00,,,0.00,weatherlink.com 1.10,2013-01-01 21:37:00,
2013-01-01 16:52:00,37.3,31.0,28.16,South,177,0.0,1.0,77,0.00,,,0.00,weatherlink.com 1.10,2013-01-01 21:52:00,
2013-01-01 17:22:00,36.2,30.0,28.16,South,176,0.0,1.0,79,0.00,,,0.00,weatherlink.com 1.10,2013-01-01 22:22:00,
2013-01-01 17:37:00,35.7,30.0,28.16,South,188,1.0,1.0,81,0.00,,,0.00,weatherlink.com 1.10,2013-01-01 22:37:00,
2013-01-01 17:52:00,36.0,29.0,28.17,South,173,0.0,2.0,77,0.00,,,0.00,weatherlink.com 1.10,2013-01-01 22:52:00,
2013-01-01 18:07:00,36.3,30.0,28.17,NNE,20,0.0,1.0,78,0.00,,,0.00,weatherlink.com 1.10,2013-01-01 23:07:00,
2013-01-01 18:23:00,35.9,31.0,28.18,North,8,0.0,1.0,81,0.00,,,0.00,weatherlink.com 1.10,2013-01-01 23:23:00,
2013-01-01 18:38:00,35.7,31.0,28.19,NE,43,0.0,2.0,82,0.00,,,0.00,weatherlink.com 1.10,2013-01-01 23:38:00,
2013-01-01 19:08:00,35.2,30.0,28.17,South,186,0.0,1.0,82,0.00,,,0.00,weatherlink.com 1.10,2013-01-02 00:08:00,
2013-01-01 19:23:00,35.1,30.0,28.18,South,186,0.0,1.0,82,0.00,,,0.00,weatherlink.com 1.10,2013-01-02 00:23:00,
2013-01-01 19:38:00,34.9,30.0,28.18,South,186,0.0,1.0,82,0.00,,,0.00,weatherlink.com 1.10,2013-01-02 00:38:00,
2013-01-01 19:53:00,34.5,30.0,28.19,South,186,0.0,0.0,83,0.00,,,0.00,weatherlink.com 1.10,2013-01-02 00:53:00,
2013-01-01 20:08:00,34.4,30.0,28.19,South,170,1.0,1.0,83,0.00,,,0.00,weatherlink.com 1.10,2013-01-02 01:08:00,
2013-01-01 20:38:00,34.0,30.0,28.19,South,170,0.0,0.0,86,0.00,,,0.00,weatherlink.com 1.10,2013-01-02 01:38:00,
2013-01-01 20:53:00,33.6,30.0,28.19,South,171,0.0,0.0,86,0.00,,,0.00,weatherlink.com 1.10,2013-01-02 01:53:00,
2013-01-01 21:08:00,33.5,30.0,28.20,South,170,0.0,0.0,87,0.00,,,0.00,weatherlink.com 1.10,2013-01-02 02:08:00,
2013-01-01 21:23:00,33.4,30.0,28.20,South,170,0.0,0.0,87,0.00,,,0.00,weatherlink.com 1.10,2013-01-02 02:23:00,
2013-01-01 21:38:00,33.3,30.0,28.20,South,170,0.0,0.0,87,0.00,,,0.00,weatherlink.com 1.10,2013-01-02 02:38:00,
2013-01-01 21:53:00,33.7,29.0,28.20,South,176,0.0,4.0,84,0.00,,,0.00,weatherlink.com 1.10,2013-01-02 02:53:00,
2013-01-01 22:08:00,34.0,29.0,28.19,South,174,0.0,0.0,83,0.00,,,0.00,weatherlink.com 1.10,2013-01-02 03:08:00,
2013-01-01 22:23:00,33.7,29.0,28.19,South,174,0.0,0.0,82,0.00,,,0.00,weatherlink.com 1.10,2013-01-02 03:23:00,
2013-01-01 22:38:00,33.6,29.0,28.19,South,174,0.0,0.0,83,0.00,,,0.00,weatherlink.com 1.10,2013-01-02 03:38:00,
2013-01-01 22:53:00,33.6,29.0,28.19,South,174,0.0,1.0,83,0.00,,,0.00,weatherlink.com 1.10,2013-01-02 03:53:00,
2013-01-01 23:08:00,33.4,30.0,28.21,South,174,0.0,1.0,87,0.00,,,0.00,weatherlink.com 1.10,2013-01-02 04:08:00,
2013-01-01 23:23:00,33.1,29.0,28.20,South,174,0.0,0.0,85,0.00,,,0.00,weatherlink.com 1.10,2013-01-02 04:23:00,
2013-01-01 23:38:00,33.1,29.0,28.19,South,175,0.0,0.0,86,0.00,,,0.00,weatherlink.com 1.10,2013-01-02 04:38:00,
2013-01-01 23:53:00,33.0,30.0,28.18,South,175,0.0,0.0,88,0.00,,,0.00,weatherlink.com 1.10,2013-01-02 04:53:00,